Mount Bethel, PA (18343)

9:31 PM EDT on August 27, 2015 (GMT -0400)
Belvidere | | Change Station
CLOSE
Current Station
Personal Weather Station
Location: Belvidere, NJ
Elevation: 292 ft
Nearby Weather Stations

Elev 292 ft 40.83 °N, 75.08 °W | Updated 1 minute ago

Mostly Cloudy
Mostly Cloudy
59.5 °F
Feels Like 59.5 °F
N
0.0
Wind Variable Wind from North

Today
High -- | Low -- °F
--% Chance of Precip.
Yesterday
High -- | Low -- °F
Precip. -- in
6:22 AM 7:41 PM
Waxing Gibbous, 96% visible
Pressure 30.16 in
Visibility 10.0 miles
Clouds Mostly Cloudy 4700 ft
Dew Point 57 °F
Humidity 91%
Rainfall 0.00 in
Snow Depth Not available.
UV 0 out of 12
Pollen 9.30 out of 12
Air Quality Not available.
Flu Activity Not available.
METAR KMPO 280053Z AUTO 32003KT 10SM BKN047 13/12 A3016 RMK AO2 SLP213 T01330117
Pressure 30.16 in
Visibility 10.0 miles
Clouds Mostly Cloudy 4700 ft
Dew Point 57 °F
Humidity 91%
Rainfall 0.00 in
Snow Depth Not available.
UV 0 out of 12
Pollen 9.30 out of 12
Air Quality Not available.
Flu Activity Not available.
METAR KMPO 280053Z AUTO 32003KT 10SM BKN047 13/12 A3016 RMK AO2 SLP213 T01330117

10-Day Weather Forecast

×

Almanac

Astronomy

Aug. 27, 2015 Rise Set
Actual Time
Civil Twilight
Nautical Twilight
Astronomical Twilight
Moon
Length of Visible Light
Length of Day
Tomorrow will be .
, % of the Moon is Illuminated

Today's Extremes

State Highs State Lows

Community

WunderPhotos

Upload Photos

1,850,297 photos uploaded!

WunderBlogs® & News

Nearby

Air Quality

  Air Quality AQ Index Pollutant
Not available.

Snow Depth

Station Depth Elevation

Earthquake Activity

City Distance Mag. Time & Date
Minimum magnitude displayed is 2.5.

Coastal Water Temperatures

Place Temperature

Stations

Nearby Weather Stations

Station Location Temp. Windchill Dew Point Humidity Wind Precip. Elev Updated Type